createdAt,value
2018-09-05T00:01:51.790Z,24.63
2018-09-05T00:04:20.286Z,24.03
2018-09-05T00:06:48.549Z,24.73
2018-09-05T00:09:16.839Z,24.40
2018-09-05T00:11:45.103Z,25.47
2018-09-05T00:14:13.626Z,24.20
2018-09-05T00:16:41.830Z,24.23
2018-09-05T00:19:10.114Z,25.17
2018-09-05T00:21:38.454Z,23.70
2018-09-05T00:24:06.930Z,24.43
2018-09-05T00:26:35.154Z,25.20
2018-09-05T00:29:03.433Z,25.33
2018-09-05T00:31:31.854Z,25.70
2018-09-05T00:34:00.219Z,25.80
2018-09-05T00:39:29.939Z,27.00
2018-09-05T00:41:59.712Z,26.37
2018-09-05T00:44:28.178Z,27.20
2018-09-05T00:46:56.371Z,26.47
2018-09-05T00:49:24.626Z,28.87
2018-09-05T00:51:52.893Z,27.20
2018-09-05T00:54:21.257Z,28.57
2018-09-05T00:56:49.569Z,28.07
2018-09-05T00:59:17.892Z,31.30
2018-09-05T01:01:46.197Z,31.00
2018-09-05T01:04:14.486Z,30.60
2018-09-05T01:06:42.734Z,30.43
2018-09-05T01:09:10.985Z,29.93
2018-09-05T01:11:39.229Z,31.03
2018-09-05T01:14:07.631Z,31.30
2018-09-05T01:16:35.918Z,31.67
2018-09-05T01:19:04.301Z,30.17
2018-09-05T01:21:32.576Z,29.85
2018-09-05T01:24:01.417Z,29.80
2018-09-05T01:26:29.664Z,31.23
2018-09-05T01:28:57.913Z,30.83
2018-09-05T01:31:26.167Z,29.53
2018-09-05T01:33:54.502Z,30.93
2018-09-05T01:36:22.793Z,31.07
2018-09-05T01:38:51.077Z,29.70
2018-09-05T01:41:19.353Z,30.73
2018-09-05T01:43:47.810Z,29.13
2018-09-05T01:46:16.146Z,31.10
2018-09-05T01:48:44.426Z,29.77
2018-09-05T01:51:12.665Z,30.83
2018-09-05T01:53:41.057Z,31.03
2018-09-05T01:56:09.309Z,30.43
2018-09-05T01:58:37.555Z,30.50
2018-09-05T02:01:05.844Z,30.57
2018-09-05T02:03:34.154Z,32.27
2018-09-05T02:06:02.413Z,31.00
2018-09-05T02:08:30.754Z,29.47
2018-09-05T02:10:58.947Z,30.53
2018-09-05T02:13:27.236Z,30.60
2018-09-05T02:15:55.520Z,30.50
2018-09-05T02:18:23.774Z,31.90
2018-09-05T02:20:52.172Z,30.57
2018-09-05T02:23:20.495Z,30.63
2018-09-05T02:25:48.767Z,30.33
2018-09-05T02:28:17.043Z,31.70
2018-09-05T02:30:45.311Z,30.73
2018-09-05T02:33:13.628Z,30.97
2018-09-05T02:35:41.871Z,30.60
2018-09-05T02:38:10.144Z,30.90
2018-09-05T02:40:38.707Z,29.77
2018-09-05T02:43:08.983Z,29.80
2018-09-05T02:45:37.255Z,29.40
2018-09-05T02:48:05.550Z,30.20
2018-09-05T02:50:33.888Z,30.97
2018-09-05T02:53:02.305Z,30.63
2018-09-05T02:55:35.941Z,31.43
2018-09-05T02:58:04.203Z,31.63
2018-09-05T03:00:32.477Z,30.43
2018-09-05T03:03:01.013Z,30.87
2018-09-05T03:05:29.285Z,31.17
2018-09-05T03:07:57.641Z,30.13
2018-09-05T03:10:25.887Z,31.33
2018-09-05T03:12:54.239Z,29.10
2018-09-05T03:15:22.494Z,29.85
2018-09-05T03:17:50.764Z,30.07
2018-09-05T03:20:19.069Z,28.87
2018-09-05T03:22:47.593Z,28.93
2018-09-05T03:25:16.031Z,29.77
2018-09-05T03:27:44.346Z,29.17
2018-09-05T03:30:12.711Z,30.00
2018-09-05T03:32:41.064Z,29.57
2018-09-05T03:35:09.247Z,30.63
2018-09-05T03:37:37.523Z,29.57
2018-09-05T03:40:06.083Z,31.50
2018-09-05T03:42:34.455Z,32.70
2018-09-05T03:45:02.747Z,32.13
2018-09-05T03:47:31.039Z,32.73
2018-09-05T03:49:59.293Z,33.13
2018-09-05T03:52:27.549Z,33.70
2018-09-05T03:54:55.841Z,34.13
2018-09-05T03:57:24.103Z,34.53
2018-09-05T03:59:52.677Z,33.03
2018-09-05T04:05:24.368Z,33.37
2018-09-05T04:07:52.606Z,32.50
2018-09-05T04:10:20.865Z,31.93
2018-09-05T04:12:49.301Z,32.57
2018-09-05T04:15:17.563Z,33.03
2018-09-05T04:17:45.892Z,31.53
2018-09-05T04:20:14.149Z,32.47
2018-09-05T04:22:43.413Z,31.80
2018-09-05T04:25:11.688Z,31.83
2018-09-05T04:27:39.984Z,32.43
2018-09-05T04:30:09.379Z,30.70
2018-09-05T04:32:37.830Z,32.93
2018-09-05T04:35:06.221Z,31.33
2018-09-05T04:37:34.561Z,32.50
2018-09-05T04:40:02.779Z,30.87
2018-09-05T04:42:31.052Z,30.83
2018-09-05T04:44:59.379Z,32.47
2018-09-05T04:47:27.624Z,31.53
2018-09-05T04:49:56.081Z,31.00
2018-09-05T04:52:24.302Z,32.57
2018-09-05T04:54:52.740Z,32.47
2018-09-05T04:57:20.994Z,32.07
2018-09-05T04:59:49.287Z,31.50
2018-09-05T05:02:17.841Z,32.23
2018-09-05T05:04:46.231Z,32.53
2018-09-05T05:07:14.543Z,31.07
2018-09-05T05:09:42.891Z,31.63
2018-09-05T05:12:11.125Z,31.53
2018-09-05T05:14:39.452Z,32.30
2018-09-05T05:17:07.721Z,31.40
2018-09-05T05:19:35.929Z,31.17
2018-09-05T05:22:04.240Z,31.20
2018-09-05T05:24:32.599Z,29.53
2018-09-05T05:27:00.920Z,29.67
2018-09-05T05:29:29.270Z,29.67
2018-09-05T05:31:57.591Z,31.23
2018-09-05T05:34:25.907Z,30.67
2018-09-05T05:36:54.173Z,30.03
2018-09-05T05:39:22.506Z,29.83
2018-09-05T05:41:50.753Z,29.73
2018-09-05T05:44:19.250Z,30.73
2018-09-05T05:46:47.590Z,30.87
2018-09-05T05:49:15.823Z,30.50
2018-09-05T05:51:44.086Z,30.40
2018-09-05T05:54:12.529Z,29.97
2018-09-05T05:56:40.821Z,30.87
2018-09-05T05:59:09.094Z,30.00
2018-09-05T06:01:37.363Z,30.73
2018-09-05T06:04:06.914Z,29.70
2018-09-05T06:06:35.126Z,31.57
2018-09-05T06:09:03.431Z,31.13
2018-09-05T06:11:31.708Z,30.73
2018-09-05T06:14:00.175Z,30.33
2018-09-05T06:16:28.491Z,30.70
2018-09-05T06:18:56.754Z,29.53
2018-09-05T06:21:25.036Z,31.30
2018-09-05T06:23:54.639Z,31.00
2018-09-05T06:26:56.393Z,30.60
2018-09-05T06:29:24.743Z,29.93
2018-09-05T06:31:53.049Z,30.80
2018-09-05T06:34:21.461Z,31.90
2018-09-05T06:36:49.698Z,30.77
2018-09-05T06:39:18.542Z,31.53
2018-09-05T06:41:46.874Z,30.40
2018-09-05T06:44:15.376Z,28.83
2018-09-05T06:46:43.729Z,29.70
2018-09-05T06:49:12.142Z,29.73
2018-09-05T06:51:40.468Z,30.80
2018-09-05T06:54:08.831Z,28.27
2018-09-05T06:56:37.379Z,28.33
2018-09-05T06:59:05.712Z,27.97
2018-09-05T07:01:34.097Z,28.43
2018-09-05T07:04:02.580Z,28.47
2018-09-05T07:06:30.768Z,29.63
2018-09-05T07:08:59.049Z,29.97
2018-09-05T07:11:27.323Z,29.63
2018-09-05T07:13:55.673Z,29.83
2018-09-05T07:16:23.976Z,30.73
2018-09-05T07:18:52.263Z,31.20
2018-09-05T07:21:20.677Z,30.20
2018-09-05T07:23:49.007Z,28.63
2018-09-05T07:26:17.321Z,29.33
2018-09-05T07:28:45.562Z,29.10
2018-09-05T07:31:14.006Z,29.03
2018-09-05T07:33:42.453Z,30.00
2018-09-05T07:36:10.735Z,29.60
2018-09-05T07:38:39.064Z,30.13
2018-09-05T07:41:07.420Z,28.73
2018-09-05T07:43:36.114Z,29.50
2018-09-05T07:46:04.401Z,28.70
2018-09-05T07:48:32.745Z,28.10
2018-09-05T07:51:01.151Z,29.33
2018-09-05T07:53:29.470Z,29.00
2018-09-05T07:55:57.896Z,28.77
2018-09-05T07:58:26.312Z,28.03
2018-09-05T08:00:54.736Z,27.47
2018-09-05T08:03:25.271Z,29.53
2018-09-05T08:05:54.063Z,29.03
2018-09-05T08:08:22.384Z,29.50
2018-09-05T08:10:50.780Z,28.67
2018-09-05T08:13:19.181Z,29.93
2018-09-05T08:15:47.495Z,29.53
2018-09-05T08:18:17.473Z,30.93
2018-09-05T08:20:45.787Z,29.37
2018-09-05T08:23:14.372Z,28.87
2018-09-05T08:25:43.350Z,27.43
2018-09-05T08:28:11.654Z,26.07
2018-09-05T08:30:40.024Z,28.63
2018-09-05T08:33:09.448Z,27.67
2018-09-05T08:35:37.958Z,27.80
2018-09-05T08:38:06.266Z,28.30
2018-09-05T08:40:34.607Z,28.03
2018-09-05T08:43:03.090Z,27.43
2018-09-05T08:45:31.717Z,28.33
2018-09-05T08:47:59.705Z,27.43
2018-09-05T08:50:28.056Z,25.83
2018-09-05T08:52:56.497Z,27.40
2018-09-05T08:55:24.890Z,28.00
2018-09-05T08:57:53.090Z,25.97
2018-09-05T09:00:21.549Z,27.73
2018-09-05T09:02:50.182Z,27.93
2018-09-05T09:05:18.525Z,28.33
2018-09-05T09:07:46.755Z,29.97
2018-09-05T09:10:15.153Z,29.67
2018-09-05T09:12:43.531Z,28.17
2018-09-05T09:15:11.872Z,28.07
2018-09-05T09:17:40.213Z,28.70
2018-09-05T09:20:08.614Z,27.47
2018-09-05T09:22:36.972Z,26.20
2018-09-05T09:25:05.264Z,27.53
2018-09-05T09:27:33.608Z,25.73
2018-09-05T09:30:02.162Z,27.70
2018-09-05T09:32:30.581Z,26.73
2018-09-05T09:34:58.847Z,27.97
2018-09-05T09:37:27.146Z,25.37
2018-09-05T09:39:55.627Z,27.00
2018-09-05T09:42:23.994Z,26.73
2018-09-05T09:44:52.323Z,26.73
2018-09-05T09:47:20.901Z,26.67
2018-09-05T09:49:49.208Z,25.77
2018-09-05T09:52:20.127Z,27.87
2018-09-05T09:54:49.752Z,27.30
2018-09-05T09:57:18.116Z,27.03
2018-09-05T09:59:46.431Z,26.67
2018-09-05T10:02:20.226Z,24.73
2018-09-05T10:04:54.052Z,28.63
2018-09-05T10:07:27.729Z,26.37
2018-09-05T10:10:01.801Z,26.97
2018-09-05T10:12:35.287Z,29.90
2018-09-05T10:15:08.907Z,27.47
2018-09-05T10:17:37.914Z,28.90
2018-09-05T10:20:06.634Z,27.83
2018-09-05T10:22:35.193Z,28.50
2018-09-05T10:25:03.482Z,28.60
2018-09-05T10:27:31.887Z,28.20
2018-09-05T10:30:00.240Z,26.67
2018-09-05T10:32:28.656Z,25.87
2018-09-05T10:34:57.147Z,28.77
2018-09-05T10:37:25.754Z,28.53
2018-09-05T10:39:54.197Z,27.60
2018-09-05T10:42:22.507Z,27.13
2018-09-05T10:44:50.811Z,25.77
2018-09-05T10:47:19.134Z,24.87
2018-09-05T10:49:47.463Z,24.57
2018-09-05T10:52:15.777Z,24.87
2018-09-05T10:54:44.150Z,24.70
2018-09-05T10:57:12.523Z,23.90
2018-09-05T10:59:41.136Z,24.60
2018-09-05T11:02:09.404Z,24.90
2018-09-05T11:04:37.871Z,25.60
2018-09-05T11:07:06.156Z,23.53
2018-09-05T11:09:34.445Z,25.57
2018-09-05T11:12:02.887Z,26.70
2018-09-05T11:14:31.342Z,26.83
2018-09-05T11:16:59.820Z,27.07
2018-09-05T11:19:28.187Z,27.53
2018-09-05T11:22:15.365Z,27.40
2018-09-05T11:24:43.747Z,26.13
2018-09-05T11:27:12.094Z,26.53
2018-09-05T11:29:40.460Z,30.37
2018-09-05T11:32:08.806Z,27.00
2018-09-05T11:34:37.596Z,27.37
2018-09-05T11:37:06.026Z,29.27
2018-09-05T11:39:34.290Z,28.73
2018-09-05T11:42:02.646Z,27.97
2018-09-05T11:44:31.051Z,28.87
2018-09-05T11:46:59.378Z,28.90
2018-09-05T11:49:27.732Z,28.40
2018-09-05T11:51:56.025Z,28.23
2018-09-05T11:54:25.078Z,28.80
2018-09-05T11:56:53.412Z,29.33
2018-09-05T11:59:21.679Z,27.73
2018-09-05T12:01:49.972Z,27.53
2018-09-05T12:04:18.358Z,30.07
2018-09-05T12:06:46.619Z,28.23
2018-09-05T12:09:14.914Z,28.40
2018-09-05T12:11:43.264Z,28.47
2018-09-05T12:14:11.840Z,28.70
2018-09-05T12:16:40.171Z,28.60
2018-09-05T12:19:08.475Z,26.93
2018-09-05T12:21:36.794Z,27.73
2018-09-05T12:24:05.273Z,29.50
2018-09-05T12:26:33.805Z,28.57
2018-09-05T12:29:04.332Z,28.27
2018-09-05T12:31:32.624Z,28.20
2018-09-05T12:34:01.035Z,27.07
2018-09-05T12:36:29.406Z,27.40
2018-09-05T12:38:57.748Z,27.73
2018-09-05T12:41:26.182Z,27.27
2018-09-05T12:43:55.725Z,28.10
2018-09-05T12:46:24.026Z,27.20
2018-09-05T12:48:52.346Z,26.80
2018-09-05T12:51:20.672Z,27.40
2018-09-05T12:53:49.158Z,25.37
2018-09-05T12:56:17.530Z,26.67
2018-09-05T12:58:45.826Z,26.70
2018-09-05T13:01:14.246Z,23.93
2018-09-05T13:03:43.760Z,25.63
2018-09-05T13:06:12.024Z,24.30
2018-09-05T13:08:40.321Z,24.03
2018-09-05T13:11:08.653Z,21.63
2018-09-05T13:13:37.045Z,22.40
2018-09-05T13:16:05.353Z,23.47
2018-09-05T13:18:33.685Z,21.67
2018-09-05T13:21:02.052Z,22.13
2018-09-05T13:23:30.391Z,21.17
2018-09-05T13:25:58.839Z,20.83
2018-09-05T13:28:27.391Z,18.87
2018-09-05T13:30:55.740Z,19.37
2018-09-05T13:33:24.093Z,16.93
2018-09-05T13:35:52.456Z,18.13
2018-09-05T13:38:20.785Z,17.80
2018-09-05T13:40:49.116Z,17.97
2018-09-05T13:43:17.602Z,17.87
2018-09-05T13:45:45.918Z,17.93
2018-09-05T13:48:14.285Z,17.90
2018-09-05T13:50:42.592Z,18.97
2018-09-05T13:53:10.916Z,18.27
2018-09-05T13:55:39.255Z,19.92
2018-09-05T13:58:07.625Z,18.30
2018-09-05T14:00:35.978Z,17.93
2018-09-05T14:03:04.505Z,18.30
2018-09-05T14:05:32.867Z,18.03
2018-09-05T14:08:01.250Z,17.03
2018-09-05T14:10:29.632Z,17.30
2018-09-05T14:12:58.155Z,17.43
2018-09-05T14:15:26.449Z,17.67
2018-09-05T14:17:54.822Z,17.03
2018-09-05T14:20:23.153Z,17.93
2018-09-05T14:22:51.750Z,17.97
2018-09-05T14:25:20.076Z,18.67
2018-09-05T14:27:48.427Z,18.63
2018-09-05T14:30:16.723Z,19.17
2018-09-05T14:32:46.217Z,17.13
2018-09-05T14:35:14.599Z,18.27
2018-09-05T14:37:42.935Z,18.27
2018-09-05T14:40:11.431Z,17.83
2018-09-05T14:42:39.698Z,17.77
2018-09-05T14:45:08.119Z,17.23
2018-09-05T14:47:36.479Z,17.07
2018-09-05T14:50:05.186Z,18.57
2018-09-05T14:52:33.452Z,18.23
2018-09-05T14:55:01.802Z,18.00
2018-09-05T14:57:30.218Z,18.20
2018-09-05T14:59:58.534Z,17.13
2018-09-05T15:02:26.853Z,18.05
2018-09-05T15:04:55.154Z,17.97
2018-09-05T15:07:23.454Z,17.43
2018-09-05T15:09:51.765Z,17.03
2018-09-05T15:12:20.085Z,17.37
2018-09-05T15:14:49.584Z,17.20
2018-09-05T15:17:17.898Z,17.93
2018-09-05T15:19:46.248Z,18.27
2018-09-05T15:22:14.582Z,20.57
2018-09-05T15:24:42.988Z,19.17
2018-09-05T15:27:11.322Z,20.13
2018-09-05T15:29:39.618Z,20.47
2018-09-05T15:32:07.927Z,20.10
2018-09-05T15:34:36.402Z,20.23
2018-09-05T15:37:04.737Z,20.87
2018-09-05T15:39:33.062Z,21.00
2018-09-05T15:42:01.323Z,20.93
2018-09-05T15:44:29.665Z,21.13
2018-09-05T15:46:58.460Z,20.83
2018-09-05T15:49:26.704Z,20.60
2018-09-05T15:51:55.863Z,22.43
2018-09-05T15:54:25.577Z,21.23
2018-09-05T15:56:53.925Z,20.23
2018-09-05T15:59:22.775Z,21.57
2018-09-05T16:01:51.155Z,22.57
2018-09-05T16:04:19.556Z,20.97
2018-09-05T16:06:47.861Z,21.23
2018-09-05T16:09:16.102Z,21.13
2018-09-05T16:11:44.420Z,19.73
2018-09-05T16:14:12.890Z,20.23
2018-09-05T16:16:41.265Z,20.47
2018-09-05T16:19:09.541Z,20.57
2018-09-05T16:21:37.787Z,20.20
2018-09-05T16:24:06.287Z,19.40
2018-09-05T16:26:34.607Z,18.60
2018-09-05T16:29:02.897Z,19.00
2018-09-05T16:31:31.239Z,19.47
2018-09-05T16:33:59.651Z,18.23
2018-09-05T16:36:27.981Z,19.03
2018-09-05T16:38:56.257Z,17.57
2018-09-05T16:41:24.637Z,17.37
2018-09-05T16:43:53.608Z,18.00
2018-09-05T16:46:21.931Z,17.87
2018-09-05T16:48:50.243Z,16.37
2018-09-05T16:51:18.515Z,18.43
2018-09-05T16:53:46.876Z,17.50
2018-09-05T16:56:15.225Z,16.70
2018-09-05T16:58:43.565Z,17.67
2018-09-05T17:01:11.849Z,17.87
2018-09-05T17:03:40.245Z,17.70
2018-09-05T17:06:08.607Z,17.63
2018-09-05T17:08:36.930Z,16.23
2018-09-05T17:11:05.383Z,16.97
2018-09-05T17:13:33.753Z,17.10
2018-09-05T17:16:02.220Z,17.13
2018-09-05T17:18:30.538Z,16.33
2018-09-05T17:20:58.813Z,17.07
2018-09-05T17:23:27.231Z,17.27
2018-09-05T17:25:55.626Z,17.03
2018-09-05T17:28:23.939Z,17.57
2018-09-05T17:30:52.264Z,16.97
2018-09-05T17:33:20.775Z,18.63
2018-09-05T17:35:49.120Z,17.10
2018-09-05T17:38:17.623Z,17.30
2018-09-05T17:40:45.917Z,18.17
2018-09-05T17:43:14.251Z,17.13
2018-09-05T17:45:42.554Z,17.53
2018-09-05T17:48:10.866Z,17.70
2018-09-05T17:50:39.131Z,18.37
2018-09-05T17:53:07.546Z,19.10
2018-09-05T17:55:35.849Z,16.87
2018-09-05T17:58:04.503Z,18.30
2018-09-05T18:00:32.766Z,17.17
2018-09-05T18:03:01.290Z,17.67
2018-09-05T18:05:29.579Z,18.00
2018-09-05T18:07:57.895Z,17.70
2018-09-05T18:10:26.199Z,18.13
2018-09-05T18:12:54.640Z,17.43
2018-09-05T18:15:22.985Z,17.07
2018-09-05T18:17:51.325Z,17.47
2018-09-05T18:20:19.896Z,17.30
2018-09-05T18:22:48.380Z,17.43
2018-09-05T18:25:16.774Z,17.50
2018-09-05T18:27:45.055Z,16.30
2018-09-05T18:30:13.325Z,17.27
2018-09-05T18:32:41.757Z,17.33
2018-09-05T18:35:10.272Z,17.63
2018-09-05T18:37:38.568Z,16.20
2018-09-05T18:40:06.920Z,16.90
2018-09-05T18:42:35.237Z,16.77
2018-09-05T18:45:03.527Z,16.97
2018-09-05T18:47:31.794Z,15.20
2018-09-05T18:50:06.861Z,15.13
2018-09-05T18:52:35.164Z,16.03
2018-09-05T18:55:03.637Z,15.70
2018-09-05T18:57:31.898Z,16.67
2018-09-05T19:00:00.179Z,16.90
2018-09-05T19:02:28.489Z,15.93
2018-09-05T19:04:57.263Z,16.67
2018-09-05T19:07:25.548Z,17.10
2018-09-05T19:09:53.788Z,15.60
2018-09-05T19:12:22.081Z,18.23
2018-09-05T19:14:51.634Z,17.97
2018-09-05T19:17:19.903Z,18.17
2018-09-05T19:19:48.290Z,18.63
2018-09-05T19:22:16.678Z,18.33
2018-09-05T19:24:45.182Z,18.17
2018-09-05T19:27:14.151Z,18.77
2018-09-05T19:29:42.447Z,19.73
2018-09-05T19:32:10.759Z,20.53
2018-09-05T19:34:39.164Z,19.03
2018-09-05T19:37:07.627Z,19.87
2018-09-05T19:39:35.941Z,20.27
2018-09-05T19:42:04.227Z,19.27
2018-09-05T19:44:32.588Z,20.50
2018-09-05T19:47:00.975Z,20.60
2018-09-05T19:49:29.308Z,20.20
2018-09-05T19:51:57.701Z,20.67
2018-09-05T19:54:26.099Z,20.03
2018-09-05T19:56:54.419Z,20.03
2018-09-05T19:59:22.801Z,20.53
2018-09-05T20:01:51.012Z,19.97
2018-09-05T20:04:19.449Z,20.07
2018-09-05T20:06:47.718Z,20.97
2018-09-05T20:09:16.036Z,20.87
2018-09-05T20:11:44.408Z,20.77
2018-09-05T20:14:12.703Z,20.83
2018-09-05T20:16:40.948Z,21.47
2018-09-05T20:19:09.569Z,20.23
2018-09-05T20:21:37.833Z,20.13
2018-09-05T20:24:06.305Z,20.77
2018-09-05T20:26:34.645Z,21.03
2018-09-05T20:29:02.968Z,20.47
2018-09-05T20:31:31.291Z,20.33
2018-09-05T20:33:59.838Z,21.00
2018-09-05T20:36:28.137Z,20.77
2018-09-05T20:38:56.410Z,20.10
2018-09-05T20:41:24.706Z,22.20
2018-09-05T20:43:53.048Z,20.03
2018-09-05T20:46:21.385Z,20.87
2018-09-05T20:48:49.643Z,20.53
2018-09-05T20:51:17.980Z,20.27
2018-09-05T20:53:47.397Z,19.60
2018-09-05T20:56:15.752Z,20.20
2018-09-05T20:58:44.050Z,20.40
2018-09-05T21:01:12.310Z,20.73
2018-09-05T21:03:40.736Z,20.60
2018-09-05T21:06:09.157Z,20.30
2018-09-05T21:08:37.529Z,19.13
2018-09-05T21:11:05.824Z,19.30
2018-09-05T21:13:34.279Z,18.30
2018-09-05T21:16:02.937Z,18.37
2018-09-05T21:18:31.282Z,17.50
2018-09-05T21:21:00.257Z,18.13
2018-09-05T21:23:30.232Z,17.30
2018-09-05T21:25:58.533Z,18.60
2018-09-05T21:28:26.840Z,17.87
2018-09-05T21:30:55.335Z,18.43
2018-09-05T21:33:24.128Z,18.57
2018-09-05T21:35:52.647Z,17.57
2018-09-05T21:38:20.980Z,18.80
2018-09-05T21:40:49.309Z,18.07
2018-09-05T21:43:17.587Z,18.37
2018-09-05T21:45:45.951Z,18.17
2018-09-05T21:48:14.568Z,18.47
2018-09-05T21:50:42.815Z,18.33
2018-09-05T21:53:11.486Z,17.63
2018-09-05T21:55:40.027Z,18.73
2018-09-05T21:58:08.697Z,19.23
2018-09-05T22:00:37.078Z,18.43
2018-09-05T22:03:09.162Z,18.37
2018-09-05T22:05:37.482Z,19.37
2018-09-05T22:08:05.926Z,17.97
2018-09-05T22:10:34.235Z,19.17
2018-09-05T22:13:03.245Z,20.60
2018-09-05T22:15:47.071Z,19.30
2018-09-05T22:18:16.162Z,20.27
2018-09-05T22:20:44.498Z,20.00
2018-09-05T22:23:12.980Z,18.77
2018-09-05T22:25:41.325Z,20.30
2018-09-05T22:28:09.702Z,19.47
2018-09-05T22:30:38.200Z,20.13
2018-09-05T22:33:06.976Z,21.10
2018-09-05T22:35:35.356Z,20.70
2018-09-05T22:38:03.690Z,20.43
2018-09-05T22:40:36.214Z,19.40
2018-09-05T22:43:16.079Z,21.83
2018-09-05T22:45:55.569Z,22.20
2018-09-05T22:48:41.112Z,22.43
2018-09-05T22:52:26.982Z,22.57
2018-09-05T22:55:12.183Z,21.57
2018-09-05T23:00:00.471Z,20.40
2018-09-05T23:04:56.877Z,19.63
2018-09-05T23:08:36.051Z,19.97
2018-09-05T23:11:15.818Z,19.97
2018-09-05T23:13:57.176Z,21.00
2018-09-05T23:17:36.100Z,21.73
2018-09-05T23:22:15.991Z,21.23
2018-09-05T23:24:45.446Z,21.37
2018-09-05T23:27:13.822Z,21.03
2018-09-05T23:29:42.151Z,21.07
2018-09-05T23:32:10.509Z,22.17
2018-09-05T23:34:39.117Z,20.90
2018-09-05T23:37:07.382Z,21.23
2018-09-05T23:39:35.648Z,21.53
2018-09-05T23:42:03.890Z,20.57
2018-09-05T23:44:32.315Z,22.17
2018-09-05T23:47:00.555Z,22.50
2018-09-05T23:49:28.846Z,22.43
2018-09-05T23:51:57.112Z,21.70
2018-09-05T23:54:25.441Z,20.23
2018-09-05T23:56:53.734Z,19.13
2018-09-05T23:59:22.001Z,18.77
